sensor_id;sensor_type;location;lat;lon;timestamp;P1;durP1;ratioP1;P2;durP2;ratioP2
68872;SDS011;55907;50.806;12.882;2023-01-19T00:02:27;11.7;;;7.4;;
68872;SDS011;55907;50.806;12.882;2023-01-19T00:05:29;8.6;;;6.5;;
68872;SDS011;55907;50.806;12.882;2023-01-19T00:08:30;9.0;;;6.4;;
68872;SDS011;55907;50.806;12.882;2023-01-19T00:11:32;8.7;;;6.6;;
68872;SDS011;55907;50.806;12.882;2023-01-19T00:14:34;7.7;;;6.2;;
68872;SDS011;55907;50.806;12.882;2023-01-19T00:17:35;9.1;;;6.0;;
68872;SDS011;55907;50.806;12.882;2023-01-19T00:20:37;8.4;;;6.1;;
68872;SDS011;55907;50.806;12.882;2023-01-19T00:23:39;7.8;;;6.2;;
68872;SDS011;55907;50.806;12.882;2023-01-19T00:26:40;7.9;;;6.2;;
68872;SDS011;55907;50.806;12.882;2023-01-19T00:29:42;8.9;;;6.6;;
68872;SDS011;55907;50.806;12.882;2023-01-19T00:32:44;8.7;;;6.4;;
68872;SDS011;55907;50.806;12.882;2023-01-19T00:35:49;10.5;;;6.7;;
68872;SDS011;55907;50.806;12.882;2023-01-19T00:38:47;9.4;;;6.9;;
68872;SDS011;55907;50.806;12.882;2023-01-19T00:41:49;8.8;;;6.4;;
68872;SDS011;55907;50.806;12.882;2023-01-19T00:44:50;8.7;;;6.7;;
68872;SDS011;55907;50.806;12.882;2023-01-19T00:47:52;10.6;;;7.5;;
68872;SDS011;55907;50.806;12.882;2023-01-19T00:50:53;10.8;;;7.4;;
68872;SDS011;55907;50.806;12.882;2023-01-19T00:53:55;9.8;;;5.8;;
68872;SDS011;55907;50.806;12.882;2023-01-19T00:56:57;9.0;;;6.4;;
68872;SDS011;55907;50.806;12.882;2023-01-19T00:59:58;8.7;;;6.2;;
68872;SDS011;55907;50.806;12.882;2023-01-19T01:03:00;9.8;;;7.1;;
68872;SDS011;55907;50.806;12.882;2023-01-19T01:06:02;9.6;;;6.2;;
68872;SDS011;55907;50.806;12.882;2023-01-19T01:09:04;9.9;;;6.1;;
68872;SDS011;55907;50.806;12.882;2023-01-19T01:12:05;7.4;;;5.7;;
68872;SDS011;55907;50.806;12.882;2023-01-19T01:15:08;8.4;;;5.7;;
68872;SDS011;55907;50.806;12.882;2023-01-19T01:18:08;7.8;;;5.4;;
68872;SDS011;55907;50.806;12.882;2023-01-19T01:21:10;10.9;;;6.2;;
68872;SDS011;55907;50.806;12.882;2023-01-19T01:24:12;9.5;;;5.8;;
68872;SDS011;55907;50.806;12.882;2023-01-19T01:27:13;7.3;;;5.5;;
68872;SDS011;55907;50.806;12.882;2023-01-19T01:33:17;6.3;;;5.2;;
68872;SDS011;55907;50.806;12.882;2023-01-19T01:36:18;7.5;;;5.2;;
68872;SDS011;55907;50.806;12.882;2023-01-19T01:39:20;8.3;;;4.8;;
68872;SDS011;55907;50.806;12.882;2023-01-19T01:42:24;7.2;;;5.4;;
68872;SDS011;55907;50.806;12.882;2023-01-19T01:45:27;6.7;;;4.8;;
68872;SDS011;55907;50.806;12.882;2023-01-19T01:48:26;6.9;;;4.9;;
68872;SDS011;55907;50.806;12.882;2023-01-19T01:51:27;6.7;;;4.6;;
68872;SDS011;55907;50.806;12.882;2023-01-19T01:54:29;6.3;;;4.8;;
68872;SDS011;55907;50.806;12.882;2023-01-19T01:57:30;7.0;;;4.6;;
68872;SDS011;55907;50.806;12.882;2023-01-19T02:00:32;7.8;;;4.2;;
68872;SDS011;55907;50.806;12.882;2023-01-19T02:03:33;7.9;;;4.5;;
68872;SDS011;55907;50.806;12.882;2023-01-19T02:06:35;5.8;;;4.3;;
68872;SDS011;55907;50.806;12.882;2023-01-19T02:09:37;5.5;;;4.1;;
68872;SDS011;55907;50.806;12.882;2023-01-19T02:12:38;5.4;;;4.2;;
68872;SDS011;55907;50.806;12.882;2023-01-19T02:15:40;6.7;;;4.8;;
68872;SDS011;55907;50.806;12.882;2023-01-19T02:18:42;6.6;;;4.6;;
68872;SDS011;55907;50.806;12.882;2023-01-19T02:21:45;6.5;;;4.9;;
68872;SDS011;55907;50.806;12.882;2023-01-19T02:24:45;5.9;;;4.3;;
68872;SDS011;55907;50.806;12.882;2023-01-19T02:27:47;5.8;;;4.5;;
68872;SDS011;55907;50.806;12.882;2023-01-19T02:30:48;6.7;;;4.9;;
68872;SDS011;55907;50.806;12.882;2023-01-19T02:33:50;6.8;;;4.8;;
68872;SDS011;55907;50.806;12.882;2023-01-19T02:36:52;7.6;;;5.4;;
68872;SDS011;55907;50.806;12.882;2023-01-19T02:39:54;7.8;;;4.5;;
68872;SDS011;55907;50.806;12.882;2023-01-19T02:42:55;8.5;;;5.3;;
68872;SDS011;55907;50.806;12.882;2023-01-19T02:45:57;8.2;;;5.4;;
68872;SDS011;55907;50.806;12.882;2023-01-19T02:48:58;6.1;;;4.2;;
68872;SDS011;55907;50.806;12.882;2023-01-19T02:52:00;6.3;;;4.6;;
68872;SDS011;55907;50.806;12.882;2023-01-19T02:55:03;6.7;;;4.7;;
68872;SDS011;55907;50.806;12.882;2023-01-19T02:58:04;7.7;;;4.8;;
68872;SDS011;55907;50.806;12.882;2023-01-19T03:01:07;6.9;;;5.0;;
68872;SDS011;55907;50.806;12.882;2023-01-19T03:04:10;6.6;;;4.8;;
68872;SDS011;55907;50.806;12.882;2023-01-19T03:07:09;8.8;;;5.1;;
68872;SDS011;55907;50.806;12.882;2023-01-19T03:10:12;6.3;;;4.7;;
68872;SDS011;55907;50.806;12.882;2023-01-19T03:13:13;5.6;;;3.8;;
68872;SDS011;55907;50.806;12.882;2023-01-19T03:16:15;8.5;;;5.2;;
68872;SDS011;55907;50.806;12.882;2023-01-19T03:19:16;6.1;;;4.6;;
68872;SDS011;55907;50.806;12.882;2023-01-19T03:22:18;8.2;;;4.7;;
68872;SDS011;55907;50.806;12.882;2023-01-19T03:25:18;7.0;;;4.5;;
68872;SDS011;55907;50.806;12.882;2023-01-19T03:28:20;8.6;;;4.8;;
68872;SDS011;55907;50.806;12.882;2023-01-19T03:31:23;6.8;;;4.9;;
68872;SDS011;55907;50.806;12.882;2023-01-19T03:34:23;6.9;;;5.0;;
68872;SDS011;55907;50.806;12.882;2023-01-19T03:37:25;6.1;;;4.5;;
68872;SDS011;55907;50.806;12.882;2023-01-19T03:40:28;6.3;;;4.4;;
68872;SDS011;55907;50.806;12.882;2023-01-19T03:43:28;6.7;;;4.9;;
68872;SDS011;55907;50.806;12.882;2023-01-19T03:46:30;7.7;;;4.7;;
68872;SDS011;55907;50.806;12.882;2023-01-19T03:49:31;6.0;;;4.5;;
68872;SDS011;55907;50.806;12.882;2023-01-19T03:52:33;6.6;;;4.9;;
68872;SDS011;55907;50.806;12.882;2023-01-19T03:55:36;5.1;;;4.1;;
68872;SDS011;55907;50.806;12.882;2023-01-19T03:58:36;6.4;;;4.5;;
68872;SDS011;55907;50.806;12.882;2023-01-19T04:01:38;6.3;;;4.3;;
68872;SDS011;55907;50.806;12.882;2023-01-19T04:04:40;7.0;;;4.4;;
68872;SDS011;55907;50.806;12.882;2023-01-19T04:07:41;7.4;;;5.0;;
68872;SDS011;55907;50.806;12.882;2023-01-19T04:10:43;6.2;;;4.3;;
68872;SDS011;55907;50.806;12.882;2023-01-19T04:13:45;6.6;;;4.6;;
68872;SDS011;55907;50.806;12.882;2023-01-19T04:16:46;6.7;;;4.7;;
68872;SDS011;55907;50.806;12.882;2023-01-19T04:19:48;6.9;;;4.7;;
68872;SDS011;55907;50.806;12.882;2023-01-19T04:22:50;5.9;;;4.3;;
68872;SDS011;55907;50.806;12.882;2023-01-19T04:25:55;7.3;;;5.2;;
68872;SDS011;55907;50.806;12.882;2023-01-19T04:28:53;6.7;;;5.0;;
68872;SDS011;55907;50.806;12.882;2023-01-19T04:31:55;5.4;;;4.4;;
68872;SDS011;55907;50.806;12.882;2023-01-19T04:34:57;6.6;;;5.2;;
68872;SDS011;55907;50.806;12.882;2023-01-19T04:37:58;6.2;;;4.8;;
68872;SDS011;55907;50.806;12.882;2023-01-19T04:41:00;7.3;;;4.9;;
68872;SDS011;55907;50.806;12.882;2023-01-19T04:44:02;7.5;;;4.7;;
68872;SDS011;55907;50.806;12.882;2023-01-19T04:47:03;6.0;;;4.9;;
68872;SDS011;55907;50.806;12.882;2023-01-19T04:50:05;8.3;;;5.0;;
68872;SDS011;55907;50.806;12.882;2023-01-19T04:53:07;6.1;;;4.5;;
68872;SDS011;55907;50.806;12.882;2023-01-19T04:56:08;7.5;;;5.5;;
68872;SDS011;55907;50.806;12.882;2023-01-19T04:59:10;7.8;;;5.3;;
68872;SDS011;55907;50.806;12.882;2023-01-19T05:02:11;7.6;;;5.0;;
68872;SDS011;55907;50.806;12.882;2023-01-19T05:05:13;7.2;;;5.4;;
68872;SDS011;55907;50.806;12.882;2023-01-19T05:08:15;8.3;;;5.8;;
68872;SDS011;55907;50.806;12.882;2023-01-19T05:11:17;9.3;;;5.5;;
68872;SDS011;55907;50.806;12.882;2023-01-19T05:14:18;7.7;;;5.2;;
68872;SDS011;55907;50.806;12.882;2023-01-19T05:17:20;8.0;;;5.1;;
68872;SDS011;55907;50.806;12.882;2023-01-19T05:20:22;8.1;;;5.4;;
68872;SDS011;55907;50.806;12.882;2023-01-19T05:23:23;9.8;;;5.8;;
68872;SDS011;55907;50.806;12.882;2023-01-19T05:26:25;7.7;;;5.4;;
68872;SDS011;55907;50.806;12.882;2023-01-19T05:29:27;9.2;;;5.9;;
68872;SDS011;55907;50.806;12.882;2023-01-19T05:32:28;9.7;;;5.4;;
68872;SDS011;55907;50.806;12.882;2023-01-19T05:35:30;7.2;;;5.3;;
68872;SDS011;55907;50.806;12.882;2023-01-19T05:38:31;9.5;;;6.1;;
68872;SDS011;55907;50.806;12.882;2023-01-19T05:41:33;9.0;;;5.9;;
68872;SDS011;55907;50.806;12.882;2023-01-19T05:44:35;8.0;;;5.6;;
68872;SDS011;55907;50.806;12.882;2023-01-19T05:47:37;9.3;;;6.2;;
68872;SDS011;55907;50.806;12.882;2023-01-19T05:50:38;8.1;;;6.0;;
68872;SDS011;55907;50.806;12.882;2023-01-19T05:53:40;10.9;;;6.3;;
68872;SDS011;55907;50.806;12.882;2023-01-19T05:56:42;7.6;;;5.6;;
68872;SDS011;55907;50.806;12.882;2023-01-19T05:59:43;9.8;;;6.3;;
68872;SDS011;55907;50.806;12.882;2023-01-19T06:02:45;8.8;;;5.9;;
68872;SDS011;55907;50.806;12.882;2023-01-19T06:05:46;8.3;;;5.9;;
68872;SDS011;55907;50.806;12.882;2023-01-19T06:08:48;8.7;;;6.4;;
68872;SDS011;55907;50.806;12.882;2023-01-19T06:11:50;10.6;;;6.8;;
68872;SDS011;55907;50.806;12.882;2023-01-19T06:14:51;9.2;;;6.3;;
68872;SDS011;55907;50.806;12.882;2023-01-19T06:17:53;8.4;;;5.6;;
68872;SDS011;55907;50.806;12.882;2023-01-19T06:20:55;8.1;;;5.6;;
68872;SDS011;55907;50.806;12.882;2023-01-19T06:23:56;9.9;;;6.5;;
68872;SDS011;55907;50.806;12.882;2023-01-19T06:26:58;8.2;;;6.5;;
68872;SDS011;55907;50.806;12.882;2023-01-19T06:30:00;9.8;;;6.3;;
68872;SDS011;55907;50.806;12.882;2023-01-19T06:33:01;9.1;;;6.3;;
68872;SDS011;55907;50.806;12.882;2023-01-19T06:36:03;8.6;;;5.8;;
68872;SDS011;55907;50.806;12.882;2023-01-19T06:39:05;9.0;;;5.9;;
68872;SDS011;55907;50.806;12.882;2023-01-19T06:42:06;8.5;;;5.7;;
68872;SDS011;55907;50.806;12.882;2023-01-19T06:45:08;8.4;;;5.5;;
68872;SDS011;55907;50.806;12.882;2023-01-19T06:48:10;7.9;;;5.8;;
68872;SDS011;55907;50.806;12.882;2023-01-19T06:51:11;7.7;;;5.8;;
68872;SDS011;55907;50.806;12.882;2023-01-19T06:54:13;8.6;;;5.8;;
68872;SDS011;55907;50.806;12.882;2023-01-19T06:57:15;8.1;;;5.3;;
68872;SDS011;55907;50.806;12.882;2023-01-19T07:00:17;8.8;;;5.7;;
68872;SDS011;55907;50.806;12.882;2023-01-19T07:03:19;9.5;;;5.8;;
68872;SDS011;55907;50.806;12.882;2023-01-19T07:06:20;7.9;;;5.6;;
68872;SDS011;55907;50.806;12.882;2023-01-19T07:09:21;7.1;;;5.4;;
68872;SDS011;55907;50.806;12.882;2023-01-19T07:12:23;7.9;;;5.7;;
68872;SDS011;55907;50.806;12.882;2023-01-19T07:18:26;8.0;;;5.4;;
68872;SDS011;55907;50.806;12.882;2023-01-19T07:21:28;6.7;;;5.4;;
68872;SDS011;55907;50.806;12.882;2023-01-19T07:24:30;8.8;;;5.5;;
68872;SDS011;55907;50.806;12.882;2023-01-19T07:27:31;7.3;;;5.4;;
68872;SDS011;55907;50.806;12.882;2023-01-19T07:30:33;8.8;;;5.6;;
68872;SDS011;55907;50.806;12.882;2023-01-19T07:33:35;10.7;;;5.7;;
68872;SDS011;55907;50.806;12.882;2023-01-19T07:36:36;9.0;;;5.0;;
68872;SDS011;55907;50.806;12.882;2023-01-19T07:39:38;7.6;;;5.3;;
68872;SDS011;55907;50.806;12.882;2023-01-19T07:42:44;9.2;;;5.8;;
68872;SDS011;55907;50.806;12.882;2023-01-19T07:45:41;8.1;;;5.3;;
68872;SDS011;55907;50.806;12.882;2023-01-19T07:48:43;10.0;;;5.9;;
68872;SDS011;55907;50.806;12.882;2023-01-19T07:51:45;8.9;;;5.7;;
68872;SDS011;55907;50.806;12.882;2023-01-19T07:54:46;7.2;;;5.7;;
68872;SDS011;55907;50.806;12.882;2023-01-19T07:57:48;9.1;;;6.5;;
68872;SDS011;55907;50.806;12.882;2023-01-19T08:00:50;8.8;;;6.5;;
68872;SDS011;55907;50.806;12.882;2023-01-19T08:03:51;9.1;;;6.3;;
68872;SDS011;55907;50.806;12.882;2023-01-19T08:06:53;9.0;;;6.2;;
68872;SDS011;55907;50.806;12.882;2023-01-19T08:09:55;8.8;;;5.4;;
68872;SDS011;55907;50.806;12.882;2023-01-19T08:12:56;9.7;;;6.3;;
68872;SDS011;55907;50.806;12.882;2023-01-19T08:15:58;9.5;;;6.6;;
68872;SDS011;55907;50.806;12.882;2023-01-19T08:18:59;9.6;;;6.4;;
68872;SDS011;55907;50.806;12.882;2023-01-19T08:22:01;12.8;;;8.6;;
68872;SDS011;55907;50.806;12.882;2023-01-19T08:25:03;9.0;;;6.5;;
68872;SDS011;55907;50.806;12.882;2023-01-19T08:28:05;7.7;;;5.5;;
68872;SDS011;55907;50.806;12.882;2023-01-19T08:31:06;7.2;;;5.4;;
68872;SDS011;55907;50.806;12.882;2023-01-19T08:34:08;6.3;;;4.9;;
68872;SDS011;55907;50.806;12.882;2023-01-19T08:37:09;7.2;;;5.2;;
68872;SDS011;55907;50.806;12.882;2023-01-19T08:40:11;7.9;;;5.1;;
68872;SDS011;55907;50.806;12.882;2023-01-19T08:43:13;9.2;;;5.6;;
68872;SDS011;55907;50.806;12.882;2023-01-19T08:46:14;7.0;;;5.4;;
68872;SDS011;55907;50.806;12.882;2023-01-19T08:49:16;7.9;;;5.5;;
68872;SDS011;55907;50.806;12.882;2023-01-19T08:55:19;7.2;;;5.5;;
68872;SDS011;55907;50.806;12.882;2023-01-19T09:01:22;7.7;;;5.5;;
68872;SDS011;55907;50.806;12.882;2023-01-19T09:04:24;8.9;;;6.1;;
68872;SDS011;55907;50.806;12.882;2023-01-19T09:07:25;8.2;;;6.8;;
68872;SDS011;55907;50.806;12.882;2023-01-19T09:10:27;7.4;;;6.5;;
68872;SDS011;55907;50.806;12.882;2023-01-19T09:13:28;8.0;;;7.2;;
68872;SDS011;55907;50.806;12.882;2023-01-19T09:16:30;10.2;;;7.1;;
68872;SDS011;55907;50.806;12.882;2023-01-19T09:19:32;8.1;;;7.3;;
68872;SDS011;55907;50.806;12.882;2023-01-19T09:22:33;8.8;;;7.9;;
68872;SDS011;55907;50.806;12.882;2023-01-19T09:25:35;9.5;;;7.8;;
68872;SDS011;55907;50.806;12.882;2023-01-19T09:28:36;8.6;;;7.7;;
68872;SDS011;55907;50.806;12.882;2023-01-19T09:31:38;8.7;;;7.8;;
68872;SDS011;55907;50.806;12.882;2023-01-19T09:34:39;9.4;;;8.5;;
68872;SDS011;55907;50.806;12.882;2023-01-19T09:37:44;9.7;;;8.7;;
68872;SDS011;55907;50.806;12.882;2023-01-19T09:40:43;12.3;;;9.2;;
68872;SDS011;55907;50.806;12.882;2023-01-19T09:43:45;9.3;;;8.3;;
68872;SDS011;55907;50.806;12.882;2023-01-19T09:46:45;9.6;;;8.6;;
68872;SDS011;55907;50.806;12.882;2023-01-19T09:49:48;9.9;;;8.2;;
68872;SDS011;55907;50.806;12.882;2023-01-19T09:52:51;9.4;;;7.5;;
68872;SDS011;55907;50.806;12.882;2023-01-19T09:55:50;6.9;;;5.0;;
68872;SDS011;55907;50.806;12.882;2023-01-19T09:58:52;5.9;;;3.9;;
68872;SDS011;55907;50.806;12.882;2023-01-19T10:02:00;9.9;;;3.8;;
68872;SDS011;55907;50.806;12.882;2023-01-19T10:04:57;6.1;;;3.5;;
68872;SDS011;55907;50.806;12.882;2023-01-19T10:07:59;6.6;;;3.4;;
68872;SDS011;55907;50.806;12.882;2023-01-19T10:10:57;5.9;;;3.5;;
68872;SDS011;55907;50.806;12.882;2023-01-19T10:13:59;6.7;;;3.5;;
68872;SDS011;55907;50.806;12.882;2023-01-19T10:17:03;6.5;;;3.7;;
68872;SDS011;55907;50.806;12.882;2023-01-19T10:20:02;5.8;;;3.8;;
68872;SDS011;55907;50.806;12.882;2023-01-19T10:23:04;6.2;;;4.1;;
68872;SDS011;55907;50.806;12.882;2023-01-19T10:26:07;5.7;;;4.0;;
68872;SDS011;55907;50.806;12.882;2023-01-19T10:32:09;6.5;;;4.2;;
68872;SDS011;55907;50.806;12.882;2023-01-19T10:35:11;6.4;;;3.8;;
68872;SDS011;55907;50.806;12.882;2023-01-19T10:38:12;6.8;;;4.2;;
68872;SDS011;55907;50.806;12.882;2023-01-19T10:41:14;6.7;;;4.3;;
68872;SDS011;55907;50.806;12.882;2023-01-19T10:44:15;6.1;;;4.4;;
68872;SDS011;55907;50.806;12.882;2023-01-19T10:47:16;6.5;;;4.4;;
68872;SDS011;55907;50.806;12.882;2023-01-19T10:50:21;7.0;;;4.4;;
68872;SDS011;55907;50.806;12.882;2023-01-19T10:53:19;8.5;;;4.7;;
68872;SDS011;55907;50.806;12.882;2023-01-19T10:56:20;7.6;;;4.5;;
68872;SDS011;55907;50.806;12.882;2023-01-19T10:59:29;7.4;;;4.6;;
68872;SDS011;55907;50.806;12.882;2023-01-19T11:02:23;8.3;;;4.6;;
68872;SDS011;55907;50.806;12.882;2023-01-19T11:05:25;6.8;;;4.7;;
68872;SDS011;55907;50.806;12.882;2023-01-19T11:08:27;7.0;;;4.5;;
68872;SDS011;55907;50.806;12.882;2023-01-19T11:11:27;9.2;;;5.1;;
68872;SDS011;55907;50.806;12.882;2023-01-19T11:14:29;8.3;;;5.1;;
68872;SDS011;55907;50.806;12.882;2023-01-19T11:17:30;6.9;;;4.7;;
68872;SDS011;55907;50.806;12.882;2023-01-19T11:20:34;8.2;;;4.7;;
68872;SDS011;55907;50.806;12.882;2023-01-19T11:23:34;7.4;;;4.9;;
68872;SDS011;55907;50.806;12.882;2023-01-19T11:26:38;8.4;;;4.9;;
68872;SDS011;55907;50.806;12.882;2023-01-19T11:29:36;7.6;;;4.4;;
68872;SDS011;55907;50.806;12.882;2023-01-19T11:32:38;6.7;;;4.7;;
68872;SDS011;55907;50.806;12.882;2023-01-19T11:35:40;7.3;;;4.7;;
68872;SDS011;55907;50.806;12.882;2023-01-19T11:38:41;8.5;;;5.1;;
68872;SDS011;55907;50.806;12.882;2023-01-19T11:41:42;7.2;;;4.4;;
68872;SDS011;55907;50.806;12.882;2023-01-19T11:44:45;7.8;;;5.9;;
68872;SDS011;55907;50.806;12.882;2023-01-19T11:47:46;10.8;;;7.5;;
68872;SDS011;55907;50.806;12.882;2023-01-19T11:50:47;11.9;;;10.4;;
68872;SDS011;55907;50.806;12.882;2023-01-19T11:53:50;15.7;;;12.3;;
68872;SDS011;55907;50.806;12.882;2023-01-19T11:56:50;11.7;;;10.5;;
68872;SDS011;55907;50.806;12.882;2023-01-19T11:59:52;11.5;;;10.3;;
68872;SDS011;55907;50.806;12.882;2023-01-19T12:02:54;12.3;;;11.1;;
68872;SDS011;55907;50.806;12.882;2023-01-19T12:05:56;11.5;;;10.3;;
68872;SDS011;55907;50.806;12.882;2023-01-19T12:08:57;12.1;;;10.4;;
68872;SDS011;55907;50.806;12.882;2023-01-19T12:12:00;13.1;;;10.4;;
68872;SDS011;55907;50.806;12.882;2023-01-19T12:15:00;12.3;;;10.6;;
68872;SDS011;55907;50.806;12.882;2023-01-19T12:18:01;11.7;;;10.5;;
68872;SDS011;55907;50.806;12.882;2023-01-19T12:21:02;11.8;;;10.5;;
68872;SDS011;55907;50.806;12.882;2023-01-19T12:24:06;11.7;;;10.5;;
68872;SDS011;55907;50.806;12.882;2023-01-19T12:27:06;12.5;;;11.2;;
68872;SDS011;55907;50.806;12.882;2023-01-19T12:30:09;13.5;;;12.3;;
68872;SDS011;55907;50.806;12.882;2023-01-19T12:36:10;12.3;;;11.1;;
68872;SDS011;55907;50.806;12.882;2023-01-19T12:39:14;12.5;;;10.9;;
68872;SDS011;55907;50.806;12.882;2023-01-19T12:48:22;13.2;;;11.3;;
68872;SDS011;55907;50.806;12.882;2023-01-19T12:51:21;11.7;;;9.9;;
68872;SDS011;55907;50.806;12.882;2023-01-19T12:54:22;12.5;;;9.7;;
68872;SDS011;55907;50.806;12.882;2023-01-19T12:57:22;12.1;;;10.2;;
68872;SDS011;55907;50.806;12.882;2023-01-19T13:00:27;10.8;;;9.7;;
68872;SDS011;55907;50.806;12.882;2023-01-19T13:09:28;13.8;;;10.7;;
68872;SDS011;55907;50.806;12.882;2023-01-19T13:12:29;13.1;;;10.6;;
68872;SDS011;55907;50.806;12.882;2023-01-19T13:15:33;13.0;;;10.4;;
68872;SDS011;55907;50.806;12.882;2023-01-19T13:18:32;12.4;;;10.7;;
68872;SDS011;55907;50.806;12.882;2023-01-19T13:21:35;12.6;;;10.0;;
68872;SDS011;55907;50.806;12.882;2023-01-19T13:27:37;12.7;;;9.8;;
68872;SDS011;55907;50.806;12.882;2023-01-19T13:30:43;10.3;;;9.3;;
68872;SDS011;55907;50.806;12.882;2023-01-19T13:33:45;10.5;;;9.1;;
68872;SDS011;55907;50.806;12.882;2023-01-19T13:36:43;11.1;;;9.0;;
68872;SDS011;55907;50.806;12.882;2023-01-19T13:39:44;10.3;;;8.5;;
68872;SDS011;55907;50.806;12.882;2023-01-19T13:42:45;9.6;;;8.3;;
68872;SDS011;55907;50.806;12.882;2023-01-19T13:45:47;9.9;;;8.3;;
68872;SDS011;55907;50.806;12.882;2023-01-19T13:48:51;11.1;;;8.8;;
68872;SDS011;55907;50.806;12.882;2023-01-19T13:54:53;10.1;;;7.4;;
68872;SDS011;55907;50.806;12.882;2023-01-19T13:57:53;10.8;;;7.6;;
68872;SDS011;55907;50.806;12.882;2023-01-19T14:00:55;9.5;;;7.3;;
68872;SDS011;55907;50.806;12.882;2023-01-19T14:03:56;8.7;;;6.3;;
68872;SDS011;55907;50.806;12.882;2023-01-19T14:06:58;6.8;;;5.5;;
68872;SDS011;55907;50.806;12.882;2023-01-19T14:10:00;7.0;;;5.7;;
68872;SDS011;55907;50.806;12.882;2023-01-19T14:13:02;8.1;;;6.2;;
68872;SDS011;55907;50.806;12.882;2023-01-19T14:16:03;7.5;;;6.1;;
68872;SDS011;55907;50.806;12.882;2023-01-19T14:19:04;7.7;;;6.4;;
68872;SDS011;55907;50.806;12.882;2023-01-19T14:22:06;7.1;;;5.9;;
68872;SDS011;55907;50.806;12.882;2023-01-19T14:31:19;7.9;;;6.7;;
68872;SDS011;55907;50.806;12.882;2023-01-19T14:37:16;10.6;;;7.0;;
68872;SDS011;55907;50.806;12.882;2023-01-19T14:40:17;8.1;;;6.3;;
68872;SDS011;55907;50.806;12.882;2023-01-19T14:43:17;7.9;;;6.3;;
68872;SDS011;55907;50.806;12.882;2023-01-19T14:46:19;8.1;;;6.4;;
68872;SDS011;55907;50.806;12.882;2023-01-19T14:49:27;7.6;;;6.1;;
68872;SDS011;55907;50.806;12.882;2023-01-19T14:52:24;8.7;;;6.3;;
68872;SDS011;55907;50.806;12.882;2023-01-19T14:55:25;7.1;;;6.3;;
68872;SDS011;55907;50.806;12.882;2023-01-19T14:58:26;7.5;;;6.4;;
68872;SDS011;55907;50.806;12.882;2023-01-19T15:01:27;9.3;;;6.8;;
68872;SDS011;55907;50.806;12.882;2023-01-19T15:04:29;9.1;;;6.6;;
68872;SDS011;55907;50.806;12.882;2023-01-19T15:07:30;8.6;;;6.9;;
68872;SDS011;55907;50.806;12.882;2023-01-19T15:10:32;10.0;;;6.7;;
68872;SDS011;55907;50.806;12.882;2023-01-19T15:13:34;7.5;;;6.1;;
68872;SDS011;55907;50.806;12.882;2023-01-19T15:16:35;9.5;;;7.2;;
68872;SDS011;55907;50.806;12.882;2023-01-19T15:19:37;19.8;;;12.6;;
68872;SDS011;55907;50.806;12.882;2023-01-19T15:22:38;10.3;;;7.2;;
68872;SDS011;55907;50.806;12.882;2023-01-19T15:25:40;8.0;;;6.9;;
68872;SDS011;55907;50.806;12.882;2023-01-19T15:28:42;10.0;;;6.4;;
68872;SDS011;55907;50.806;12.882;2023-01-19T15:31:43;8.8;;;6.7;;
68872;SDS011;55907;50.806;12.882;2023-01-19T15:34:45;8.7;;;6.9;;
68872;SDS011;55907;50.806;12.882;2023-01-19T15:37:47;8.2;;;6.4;;
68872;SDS011;55907;50.806;12.882;2023-01-19T15:40:49;8.8;;;6.8;;
68872;SDS011;55907;50.806;12.882;2023-01-19T15:43:50;8.7;;;6.8;;
68872;SDS011;55907;50.806;12.882;2023-01-19T15:46:52;7.6;;;6.5;;
68872;SDS011;55907;50.806;12.882;2023-01-19T15:49:53;8.1;;;6.6;;
68872;SDS011;55907;50.806;12.882;2023-01-19T15:55:56;7.5;;;6.3;;
68872;SDS011;55907;50.806;12.882;2023-01-19T15:58:58;8.8;;;6.8;;
68872;SDS011;55907;50.806;12.882;2023-01-19T16:02:00;8.2;;;6.5;;
68872;SDS011;55907;50.806;12.882;2023-01-19T16:05:01;6.9;;;6.2;;
68872;SDS011;55907;50.806;12.882;2023-01-19T16:08:03;7.6;;;6.6;;
68872;SDS011;55907;50.806;12.882;2023-01-19T16:11:05;8.2;;;6.6;;
68872;SDS011;55907;50.806;12.882;2023-01-19T16:14:06;7.8;;;6.5;;
68872;SDS011;55907;50.806;12.882;2023-01-19T16:17:08;8.5;;;6.6;;
68872;SDS011;55907;50.806;12.882;2023-01-19T16:20:10;7.4;;;6.3;;
68872;SDS011;55907;50.806;12.882;2023-01-19T16:23:11;7.3;;;5.9;;
68872;SDS011;55907;50.806;12.882;2023-01-19T16:32:16;8.4;;;6.7;;
68872;SDS011;55907;50.806;12.882;2023-01-19T16:35:18;7.6;;;6.8;;
68872;SDS011;55907;50.806;12.882;2023-01-19T16:38:20;9.1;;;7.1;;
68872;SDS011;55907;50.806;12.882;2023-01-19T16:41:21;8.7;;;6.4;;
68872;SDS011;55907;50.806;12.882;2023-01-19T16:44:23;8.5;;;6.9;;
68872;SDS011;55907;50.806;12.882;2023-01-19T16:47:24;11.3;;;7.2;;
68872;SDS011;55907;50.806;12.882;2023-01-19T16:50:26;10.7;;;7.6;;
68872;SDS011;55907;50.806;12.882;2023-01-19T16:53:27;8.5;;;6.5;;
68872;SDS011;55907;50.806;12.882;2023-01-19T16:56:29;8.1;;;7.0;;
68872;SDS011;55907;50.806;12.882;2023-01-19T16:59:31;8.0;;;6.4;;
68872;SDS011;55907;50.806;12.882;2023-01-19T17:02:32;9.0;;;6.5;;
68872;SDS011;55907;50.806;12.882;2023-01-19T17:05:34;8.0;;;6.4;;
68872;SDS011;55907;50.806;12.882;2023-01-19T17:08:36;7.5;;;6.5;;
68872;SDS011;55907;50.806;12.882;2023-01-19T17:14:39;8.0;;;6.3;;
68872;SDS011;55907;50.806;12.882;2023-01-19T17:17:40;7.5;;;6.3;;
68872;SDS011;55907;50.806;12.882;2023-01-19T17:20:42;8.1;;;6.3;;
68872;SDS011;55907;50.806;12.882;2023-01-19T17:23:44;8.5;;;7.1;;
68872;SDS011;55907;50.806;12.882;2023-01-19T17:26:45;7.4;;;6.4;;
68872;SDS011;55907;50.806;12.882;2023-01-19T17:29:47;8.8;;;6.9;;
68872;SDS011;55907;50.806;12.882;2023-01-19T17:32:48;8.6;;;6.7;;
68872;SDS011;55907;50.806;12.882;2023-01-19T17:35:50;9.2;;;7.2;;
68872;SDS011;55907;50.806;12.882;2023-01-19T17:38:52;8.7;;;6.9;;
68872;SDS011;55907;50.806;12.882;2023-01-19T17:41:53;8.6;;;6.7;;
68872;SDS011;55907;50.806;12.882;2023-01-19T17:44:55;9.0;;;7.1;;
68872;SDS011;55907;50.806;12.882;2023-01-19T17:47:56;8.9;;;7.1;;
68872;SDS011;55907;50.806;12.882;2023-01-19T17:51:00;8.2;;;6.9;;
68872;SDS011;55907;50.806;12.882;2023-01-19T17:54:00;9.8;;;8.0;;
68872;SDS011;55907;50.806;12.882;2023-01-19T17:57:01;10.8;;;7.1;;
68872;SDS011;55907;50.806;12.882;2023-01-19T18:00:03;8.8;;;7.7;;
68872;SDS011;55907;50.806;12.882;2023-01-19T18:03:05;9.3;;;7.2;;
68872;SDS011;55907;50.806;12.882;2023-01-19T18:06:07;9.8;;;8.0;;
68872;SDS011;55907;50.806;12.882;2023-01-19T18:09:08;9.1;;;7.6;;
68872;SDS011;55907;50.806;12.882;2023-01-19T18:15:11;10.1;;;7.5;;
68872;SDS011;55907;50.806;12.882;2023-01-19T18:18:13;9.9;;;7.9;;
68872;SDS011;55907;50.806;12.882;2023-01-19T18:21:15;9.8;;;8.2;;
68872;SDS011;55907;50.806;12.882;2023-01-19T18:24:16;9.9;;;8.6;;
68872;SDS011;55907;50.806;12.882;2023-01-19T18:30:19;8.9;;;7.9;;
68872;SDS011;55907;50.806;12.882;2023-01-19T18:33:21;9.5;;;7.9;;
68872;SDS011;55907;50.806;12.882;2023-01-19T18:36:22;9.9;;;8.7;;
68872;SDS011;55907;50.806;12.882;2023-01-19T18:39:24;9.4;;;8.2;;
68872;SDS011;55907;50.806;12.882;2023-01-19T18:42:26;10.3;;;8.4;;
68872;SDS011;55907;50.806;12.882;2023-01-19T18:45:27;10.5;;;8.3;;
68872;SDS011;55907;50.806;12.882;2023-01-19T18:48:29;10.9;;;8.0;;
68872;SDS011;55907;50.806;12.882;2023-01-19T18:51:30;11.7;;;8.1;;
68872;SDS011;55907;50.806;12.882;2023-01-19T18:54:32;11.0;;;8.8;;
68872;SDS011;55907;50.806;12.882;2023-01-19T18:57:34;10.3;;;8.6;;
68872;SDS011;55907;50.806;12.882;2023-01-19T19:00:35;10.4;;;8.6;;
68872;SDS011;55907;50.806;12.882;2023-01-19T19:03:37;11.1;;;8.4;;
68872;SDS011;55907;50.806;12.882;2023-01-19T19:09:40;11.9;;;9.4;;
68872;SDS011;55907;50.806;12.882;2023-01-19T19:12:42;10.5;;;8.4;;
68872;SDS011;55907;50.806;12.882;2023-01-19T19:15:43;8.7;;;7.6;;
68872;SDS011;55907;50.806;12.882;2023-01-19T19:18:45;9.1;;;8.1;;
68872;SDS011;55907;50.806;12.882;2023-01-19T19:24:48;11.4;;;8.5;;
68872;SDS011;55907;50.806;12.882;2023-01-19T19:27:50;10.8;;;8.8;;
68872;SDS011;55907;50.806;12.882;2023-01-19T19:31:00;12.0;;;9.3;;
68872;SDS011;55907;50.806;12.882;2023-01-19T19:33:53;9.5;;;8.5;;
68872;SDS011;55907;50.806;12.882;2023-01-19T19:36:55;9.4;;;8.4;;